createdAt,value
2018-02-02T00:01:46.174Z,99967.99
2018-02-02T00:04:16.217Z,99970.63
2018-02-02T00:06:46.252Z,99962.06
2018-02-02T00:09:16.226Z,99965.22
2018-02-02T00:11:46.125Z,99962.33
2018-02-02T00:14:16.166Z,99968.01
2018-02-02T00:16:46.083Z,99969.84
2018-02-02T00:19:16.125Z,99966.14
2018-02-02T00:21:47.648Z,99963.27
2018-02-02T00:24:17.692Z,99960.88
2018-02-02T00:26:47.526Z,99958.09
2018-02-02T00:29:18.461Z,99960.22
2018-02-02T00:31:48.564Z,99948.60
2018-02-02T00:34:18.510Z,99956.66
2018-02-02T00:36:49.258Z,99946.13
2018-02-02T00:39:19.172Z,99943.08
2018-02-02T00:41:49.116Z,99944.66
2018-02-02T00:44:19.034Z,99945.06
2018-02-02T00:46:49.049Z,99947.44
2018-02-02T00:49:18.846Z,99935.31
2018-02-02T00:51:52.749Z,99946.63
2018-02-02T00:54:22.755Z,99939.66
2018-02-02T00:56:53.367Z,99941.50
2018-02-02T00:59:23.404Z,99940.97
2018-02-02T01:01:54.184Z,99938.45
2018-02-02T01:04:24.041Z,99928.57
2018-02-02T01:06:54.780Z,99922.25
2018-02-02T01:09:25.370Z,99923.16
2018-02-02T01:11:55.320Z,99914.58
2018-02-02T01:14:25.212Z,99922.52
2018-02-02T01:16:55.277Z,99919.34
2018-02-02T01:19:25.991Z,99927.38
2018-02-02T01:21:55.828Z,99923.28
2018-02-02T01:24:26.433Z,99919.20
2018-02-02T01:26:56.472Z,99918.67
2018-02-02T01:29:27.349Z,99919.62
2018-02-02T01:31:57.513Z,99911.43
2018-02-02T01:34:27.364Z,99906.67
2018-02-02T01:36:57.306Z,99908.00
2018-02-02T01:39:27.254Z,99907.19
2018-02-02T01:41:57.228Z,99908.27
2018-02-02T01:44:27.267Z,99903.27
2018-02-02T01:46:57.429Z,99908.78
2018-02-02T01:49:28.176Z,99908.38
2018-02-02T01:51:58.838Z,99905.62
2018-02-02T01:54:29.277Z,99916.16
2018-02-02T01:56:59.336Z,99904.70
2018-02-02T01:59:29.263Z,99902.07
2018-02-02T02:01:59.992Z,99905.11
2018-02-02T02:04:30.714Z,99892.72
2018-02-02T02:07:00.909Z,99899.30
2018-02-02T02:09:30.913Z,99898.52
2018-02-02T02:12:00.752Z,99887.28
2018-02-02T02:14:30.701Z,99900.34
2018-02-02T02:17:01.267Z,99897.45
2018-02-02T02:19:31.045Z,99897.98
2018-02-02T02:22:01.623Z,99894.69
2018-02-02T02:24:31.432Z,99897.05
2018-02-02T02:27:01.230Z,99885.22
2018-02-02T02:29:31.093Z,99883.23
2018-02-02T02:32:01.310Z,99887.85
2018-02-02T02:34:31.288Z,99887.72
2018-02-02T02:37:01.093Z,99882.31
2018-02-02T02:39:31.834Z,99881.52
2018-02-02T02:42:01.745Z,99882.16
2018-02-02T02:44:31.612Z,99881.38
2018-02-02T02:47:01.392Z,99882.94
2018-02-02T02:49:31.594Z,99872.95
2018-02-02T02:52:01.502Z,99874.00
2018-02-02T02:54:32.164Z,99875.83
2018-02-02T02:57:01.918Z,99876.23
2018-02-02T02:59:32.090Z,99874.52
2018-02-02T03:02:01.946Z,99869.67
2018-02-02T03:04:31.877Z,99869.38
2018-02-02T03:07:01.870Z,99874.00
2018-02-02T03:09:31.745Z,99864.64
2018-02-02T03:12:01.520Z,99866.89
2018-02-02T03:14:32.128Z,99859.38
2018-02-02T03:17:01.923Z,99871.77
2018-02-02T03:19:31.753Z,99857.67
2018-02-02T03:22:01.807Z,99868.48
2018-02-02T03:24:32.793Z,99858.59
2018-02-02T03:27:02.721Z,99861.21
2018-02-02T03:29:32.737Z,99857.28
2018-02-02T03:32:02.508Z,99855.00
2018-02-02T03:34:32.629Z,99857.52
2018-02-02T03:37:02.500Z,99861.86
2018-02-02T03:39:32.512Z,99858.84
2018-02-02T03:42:02.357Z,99857.80
2018-02-02T03:44:33.011Z,99858.56
2018-02-02T03:47:03.086Z,99857.13
2018-02-02T03:49:33.799Z,99859.62
2018-02-02T03:52:03.610Z,99859.36
2018-02-02T03:54:33.732Z,99857.23
2018-02-02T03:57:03.531Z,99852.89
2018-02-02T03:59:33.495Z,99840.39
2018-02-02T04:02:03.528Z,99856.57
2018-02-02T04:04:34.517Z,99844.70
2018-02-02T04:07:04.548Z,99854.99
2018-02-02T04:09:34.349Z,99853.42
2018-02-02T04:12:04.188Z,99856.96
2018-02-02T04:14:33.992Z,99843.00
2018-02-02T04:17:03.939Z,99845.75
2018-02-02T04:19:33.910Z,99859.88
2018-02-02T04:22:03.756Z,99859.09
2018-02-02T04:24:35.289Z,99860.03
2018-02-02T04:27:05.099Z,99858.97
2018-02-02T04:29:34.934Z,99852.50
2018-02-02T04:32:04.849Z,99860.66
2018-02-02T04:34:34.858Z,99858.28
2018-02-02T04:37:05.573Z,99857.36
2018-02-02T04:39:35.404Z,99856.28
2018-02-02T04:42:05.317Z,99859.98
2018-02-02T04:44:35.198Z,99860.22
2018-02-02T04:47:05.247Z,99855.09
2018-02-02T04:49:35.076Z,99861.55
2018-02-02T04:52:05.089Z,99864.95
2018-02-02T04:54:35.012Z,99855.84
2018-02-02T04:57:04.896Z,99859.67
2018-02-02T04:59:34.787Z,99852.83
2018-02-02T05:02:04.653Z,99849.11
2018-02-02T05:04:34.516Z,99855.61
2018-02-02T05:07:05.237Z,99851.50
2018-02-02T05:09:35.906Z,99854.14
2018-02-02T05:12:05.972Z,99851.34
2018-02-02T05:14:35.848Z,99854.64
2018-02-02T05:17:05.644Z,99852.36
2018-02-02T05:19:35.505Z,99852.62
2018-02-02T05:22:06.158Z,99857.41
2018-02-02T05:24:36.859Z,99851.23
2018-02-02T05:27:07.480Z,99851.48
2018-02-02T05:29:37.220Z,99847.64
2018-02-02T05:32:07.128Z,99847.98
2018-02-02T05:34:38.335Z,99852.24
2018-02-02T05:37:09.301Z,99857.86
2018-02-02T05:39:39.208Z,99854.02
2018-02-02T05:42:09.868Z,99853.77
2018-02-02T05:44:39.707Z,99850.61
2018-02-02T05:47:09.772Z,99853.92
2018-02-02T05:49:46.591Z,99847.61
2018-02-02T05:52:16.446Z,99846.82
2018-02-02T05:54:46.296Z,99845.12
2018-02-02T05:57:16.096Z,99842.86
2018-02-02T05:59:46.780Z,99834.55
2018-02-02T06:02:16.817Z,99835.06
2018-02-02T06:04:46.713Z,99840.05
2018-02-02T06:07:16.742Z,99839.55
2018-02-02T06:09:46.612Z,99840.39
2018-02-02T06:12:16.599Z,99830.05
2018-02-02T06:14:46.510Z,99836.47
2018-02-02T06:17:16.499Z,99835.88
2018-02-02T06:19:46.556Z,99834.67
2018-02-02T06:22:17.354Z,99837.02
2018-02-02T06:24:48.061Z,99845.85
2018-02-02T06:27:17.896Z,99848.81
2018-02-02T06:29:47.901Z,99855.52
2018-02-02T06:32:17.817Z,99853.81
2018-02-02T06:34:47.751Z,99845.61
2018-02-02T06:37:17.778Z,99850.91
2018-02-02T06:39:47.707Z,99844.02
2018-02-02T06:42:17.673Z,99848.67
2018-02-02T06:44:48.493Z,99849.88
2018-02-02T06:47:18.358Z,99846.28
2018-02-02T06:49:48.165Z,99842.05
2018-02-02T06:52:17.986Z,99845.77
2018-02-02T06:54:47.807Z,99851.42
2018-02-02T06:57:17.836Z,99846.19
2018-02-02T06:59:47.652Z,99850.00
2018-02-02T07:02:17.657Z,99849.06
2018-02-02T07:04:47.583Z,99849.30
2018-02-02T07:07:17.683Z,99852.47
2018-02-02T07:09:47.767Z,99859.36
2018-02-02T07:12:18.514Z,99861.33
2018-02-02T07:14:48.338Z,99861.48
2018-02-02T07:17:18.161Z,99855.23
2018-02-02T07:19:48.311Z,99868.19
2018-02-02T07:22:18.208Z,99862.49
2018-02-02T07:24:48.251Z,99858.01
2018-02-02T07:27:18.441Z,99854.67
2018-02-02T07:29:48.214Z,99859.96
2018-02-02T07:32:19.209Z,99859.47
2018-02-02T07:34:49.128Z,99857.09
2018-02-02T07:37:19.108Z,99855.38
2018-02-02T07:39:48.916Z,99867.86
2018-02-02T07:42:19.429Z,99872.36
2018-02-02T07:44:49.415Z,99863.80
2018-02-02T07:47:19.436Z,99874.33
2018-02-02T07:49:50.127Z,99875.90
2018-02-02T07:52:20.356Z,99880.80
2018-02-02T07:54:50.134Z,99871.17
2018-02-02T07:57:20.237Z,99859.84
2018-02-02T07:59:51.048Z,99883.47
2018-02-02T08:02:20.954Z,99885.94
2018-02-02T08:04:50.920Z,99878.29
2018-02-02T08:07:25.572Z,99879.98
2018-02-02T08:09:55.414Z,99890.44
2018-02-02T08:12:25.382Z,99890.30
2018-02-02T08:14:55.989Z,99883.04
2018-02-02T08:17:25.871Z,99884.91
2018-02-02T08:19:56.106Z,99883.47
2018-02-02T08:22:25.975Z,99883.61
2018-02-02T08:24:56.571Z,99894.02
2018-02-02T08:27:27.709Z,99898.12
2018-02-02T08:29:58.235Z,99901.54
2018-02-02T08:32:28.127Z,99898.25
2018-02-02T08:34:58.162Z,99894.16
2018-02-02T08:37:28.794Z,99898.91
2018-02-02T08:39:59.058Z,99891.00
2018-02-02T08:42:29.364Z,99888.36
2018-02-02T08:44:59.334Z,99889.70
2018-02-02T08:47:29.292Z,99894.43
2018-02-02T08:49:59.310Z,99888.91
2018-02-02T08:52:29.364Z,99893.80
2018-02-02T08:54:59.960Z,99896.33
2018-02-02T08:57:31.138Z,99899.48
2018-02-02T09:00:01.916Z,99899.20
2018-02-02T09:02:31.771Z,99908.84
2018-02-02T09:05:03.671Z,99903.45
2018-02-02T09:07:33.689Z,99904.63
2018-02-02T09:10:03.656Z,99911.48
2018-02-02T09:12:33.938Z,99916.27
2018-02-02T09:15:03.921Z,99917.73
2018-02-02T09:17:33.768Z,99920.85
2018-02-02T09:20:04.033Z,99927.74
2018-02-02T09:22:34.089Z,99926.42
2018-02-02T09:25:04.718Z,99932.61
2018-02-02T09:27:33.704Z,99935.25
2018-02-02T09:30:03.842Z,99940.02
2018-02-02T09:32:34.480Z,99934.20
2018-02-02T09:35:04.695Z,99939.61
2018-02-02T09:37:35.437Z,99938.30
2018-02-02T09:40:05.578Z,99938.83
2018-02-02T09:42:35.465Z,99942.77
2018-02-02T09:45:06.230Z,99948.04
2018-02-02T09:47:36.256Z,99939.58
2018-02-02T09:50:06.212Z,99943.93
2018-02-02T09:52:36.095Z,99946.58
2018-02-02T09:55:06.331Z,99943.69
2018-02-02T09:57:36.148Z,99944.07
2018-02-02T10:00:06.284Z,99949.88
2018-02-02T10:02:36.262Z,99948.15
2018-02-02T10:05:06.303Z,99957.12
2018-02-02T10:07:36.548Z,99961.06
2018-02-02T10:10:06.649Z,99956.84
2018-02-02T10:12:37.101Z,99959.05
2018-02-02T10:15:07.709Z,99958.02
2018-02-02T10:17:38.104Z,99961.43
2018-02-02T10:20:08.728Z,99963.80
2018-02-02T10:22:48.027Z,99965.14
2018-02-02T10:25:34.353Z,99969.48
2018-02-02T10:28:04.521Z,99972.78
2018-02-02T10:30:34.972Z,99974.34
2018-02-02T10:33:05.193Z,99972.11
2018-02-02T10:35:35.404Z,99977.11
2018-02-02T10:38:05.623Z,99981.02
2018-02-02T10:40:35.761Z,99984.19
2018-02-02T10:43:07.624Z,99981.62
2018-02-02T10:45:37.743Z,99988.31
2018-02-02T10:48:07.970Z,99988.29
2018-02-02T10:50:38.289Z,99991.15
2018-02-02T10:53:08.420Z,99996.53
2018-02-02T10:55:38.225Z,100002.67
2018-02-02T10:58:08.297Z,100008.20
2018-02-02T11:00:42.227Z,100004.37
2018-02-02T11:03:20.397Z,100010.03
2018-02-02T11:05:50.270Z,100008.83
2018-02-02T11:08:20.331Z,100013.72
2018-02-02T11:10:50.205Z,100012.98
2018-02-02T11:13:20.467Z,100026.08
2018-02-02T11:15:50.393Z,100026.08
2018-02-02T11:18:20.584Z,100024.73
2018-02-02T11:20:50.773Z,100023.99
2018-02-02T11:23:20.730Z,100019.10
2018-02-02T11:25:51.586Z,100028.84
2018-02-02T11:28:22.381Z,100029.53
2018-02-02T11:30:52.293Z,100032.17
2018-02-02T11:33:22.133Z,100025.09
2018-02-02T11:35:52.776Z,100027.32
2018-02-02T11:38:22.771Z,100031.11
2018-02-02T11:40:53.555Z,100042.58
2018-02-02T11:43:23.442Z,100034.44
2018-02-02T11:45:54.163Z,100031.46
2018-02-02T11:48:24.074Z,100034.07
2018-02-02T11:50:55.036Z,100028.69
2018-02-02T11:53:25.137Z,100025.89
2018-02-02T11:55:55.827Z,100031.91
2018-02-02T11:58:25.724Z,100025.02
2018-02-02T12:00:55.703Z,100027.91
2018-02-02T12:03:26.349Z,100027.30
2018-02-02T12:05:57.037Z,100027.42
2018-02-02T12:08:27.057Z,100036.93
2018-02-02T12:10:57.126Z,100035.28
2018-02-02T12:13:26.993Z,100041.02
2018-02-02T12:15:56.941Z,100041.48
2018-02-02T12:18:27.617Z,100042.80
2018-02-02T12:20:57.897Z,100045.24
2018-02-02T12:23:28.865Z,100045.98
2018-02-02T12:25:58.869Z,100043.91
2018-02-02T12:28:30.278Z,100044.42
2018-02-02T12:31:00.892Z,100042.30
2018-02-02T12:33:31.920Z,100042.50
2018-02-02T12:36:03.091Z,100045.16
2018-02-02T12:38:33.409Z,100044.84
2018-02-02T12:41:03.606Z,100046.42
2018-02-02T12:43:33.842Z,100045.33
2018-02-02T12:46:04.249Z,100043.05
2018-02-02T12:48:42.521Z,100047.62
2018-02-02T12:51:18.190Z,100042.86
2018-02-02T12:53:49.437Z,100046.94
2018-02-02T12:56:20.842Z,100040.69
2018-02-02T12:58:51.059Z,100041.55
2018-02-02T13:01:21.709Z,100043.98
2018-02-02T13:03:52.438Z,100049.94
2018-02-02T13:06:22.815Z,100055.42
2018-02-02T13:08:53.760Z,100056.80
2018-02-02T13:11:24.241Z,100065.03
2018-02-02T13:13:55.314Z,100059.78
2018-02-02T13:16:26.294Z,100062.48
2018-02-02T13:18:56.418Z,100064.09
2018-02-02T13:21:27.832Z,100066.18
2018-02-02T13:23:59.195Z,100060.69
2018-02-02T13:26:29.638Z,100067.34
2018-02-02T13:28:59.881Z,100063.25
2018-02-02T13:31:30.589Z,100071.59
2018-02-02T13:34:00.923Z,100069.11
2018-02-02T13:36:31.909Z,100066.01
2018-02-02T13:39:02.112Z,100075.76
2018-02-02T13:41:32.462Z,100077.89
2018-02-02T13:44:02.719Z,100091.61
2018-02-02T13:46:33.102Z,100088.80
2018-02-02T13:49:03.810Z,100089.02
2018-02-02T13:51:34.419Z,100090.19
2018-02-02T13:54:04.872Z,100091.80
2018-02-02T13:56:36.425Z,100096.81
2018-02-02T13:59:06.565Z,100103.88
2018-02-02T14:01:36.457Z,100101.92
2018-02-02T14:04:06.577Z,100104.05
2018-02-02T14:06:36.551Z,100108.30
2018-02-02T14:09:07.260Z,100111.59
2018-02-02T14:11:37.199Z,100115.64
2018-02-02T14:14:07.979Z,100113.95
2018-02-02T14:16:38.051Z,100114.48
2018-02-02T14:19:08.984Z,100114.97
2018-02-02T14:21:38.951Z,100119.30
2018-02-02T14:24:08.760Z,100128.98
2018-02-02T14:26:38.862Z,100130.00
2018-02-02T14:29:08.836Z,100132.64
2018-02-02T14:31:38.802Z,100132.34
2018-02-02T14:34:08.732Z,100140.08
2018-02-02T14:36:38.605Z,100138.02
2018-02-02T14:39:08.416Z,100141.80
2018-02-02T14:41:39.036Z,100145.67
2018-02-02T14:44:09.169Z,100146.07
2018-02-02T14:46:39.942Z,100144.22
2018-02-02T14:49:09.916Z,100146.92
2018-02-02T14:51:40.092Z,100155.31
2018-02-02T14:54:09.951Z,100163.42
2018-02-02T14:56:41.039Z,100164.80
2018-02-02T14:59:29.151Z,100175.39
2018-02-02T15:02:00.892Z,100175.39
2018-02-02T15:04:32.636Z,100175.91
2018-02-02T15:07:02.881Z,100181.25
2018-02-02T15:09:33.720Z,100172.02
2018-02-02T15:12:04.770Z,100181.98
2018-02-02T15:14:35.849Z,100182.53
2018-02-02T15:17:06.376Z,100186.51
2018-02-02T15:19:36.922Z,100190.20
2018-02-02T15:22:07.456Z,100188.19
2018-02-02T15:24:37.740Z,100191.59
2018-02-02T15:27:08.371Z,100192.34
2018-02-02T15:29:38.795Z,100192.34
2018-02-02T15:32:09.038Z,100196.40
2018-02-02T15:34:40.135Z,100199.94
2018-02-02T15:37:11.128Z,100199.45
2018-02-02T15:39:41.531Z,100206.53
2018-02-02T15:42:12.133Z,100215.18
2018-02-02T15:44:42.637Z,100225.39
2018-02-02T15:47:13.094Z,100222.22
2018-02-02T15:49:43.305Z,100225.14
2018-02-02T15:52:14.345Z,100236.41
2018-02-02T15:54:44.886Z,100234.38
2018-02-02T15:57:16.610Z,100246.05
2018-02-02T15:59:46.925Z,100237.85
2018-02-02T16:02:17.442Z,100241.27
2018-02-02T16:04:47.957Z,100243.95
2018-02-02T16:07:18.337Z,100240.13
2018-02-02T16:09:49.082Z,100241.57
2018-02-02T16:12:20.326Z,100254.30
2018-02-02T16:14:51.081Z,100257.78
2018-02-02T16:17:22.238Z,100262.68
2018-02-02T16:19:53.027Z,100265.87
2018-02-02T16:22:23.747Z,100274.72
2018-02-02T16:24:54.220Z,100281.20
2018-02-02T16:27:24.324Z,100283.58
2018-02-02T16:29:55.193Z,100282.69
2018-02-02T16:32:26.164Z,100292.62
2018-02-02T16:34:57.386Z,100291.42
2018-02-02T16:37:27.845Z,100296.58
2018-02-02T16:39:58.018Z,100305.31
2018-02-02T16:42:28.820Z,100307.83
2018-02-02T16:44:58.885Z,100320.00
2018-02-02T16:47:29.124Z,100315.63
2018-02-02T16:49:59.660Z,100316.31
2018-02-02T16:52:29.655Z,100314.45
2018-02-02T16:54:59.848Z,100323.70
2018-02-02T16:57:29.739Z,100322.25
2018-02-02T17:00:00.041Z,100327.16
2018-02-02T17:02:30.241Z,100327.03
2018-02-02T17:05:00.402Z,100328.47
2018-02-02T17:07:30.617Z,100331.25
2018-02-02T17:10:00.879Z,100332.72
2018-02-02T17:12:31.286Z,100335.09
2018-02-02T17:15:01.482Z,100334.81
2018-02-02T17:17:31.524Z,100339.20
2018-02-02T17:20:02.124Z,100343.02
2018-02-02T17:22:32.053Z,100339.56
2018-02-02T17:25:02.923Z,100347.39
2018-02-02T17:27:32.896Z,100350.83
2018-02-02T17:30:02.968Z,100355.32
2018-02-02T17:32:33.853Z,100349.91
2018-02-02T17:35:05.488Z,100362.72
2018-02-02T17:37:37.075Z,100359.94
2018-02-02T17:40:09.509Z,100363.38
2018-02-02T17:42:41.048Z,100366.02
2018-02-02T17:45:12.702Z,100365.49
2018-02-02T17:47:42.549Z,100362.06
2018-02-02T17:50:12.639Z,100367.09
2018-02-02T17:52:45.720Z,100368.93
2018-02-02T17:55:15.692Z,100370.92
2018-02-02T17:57:46.089Z,100373.69
2018-02-02T18:00:16.384Z,100376.88
2018-02-02T18:02:48.250Z,100379.80
2018-02-02T18:05:19.372Z,100384.14
2018-02-02T18:07:49.603Z,100381.89
2018-02-02T18:10:19.705Z,100390.22
2018-02-02T18:12:50.200Z,100388.36
2018-02-02T18:15:20.194Z,100395.39
2018-02-02T18:17:51.080Z,100389.83
2018-02-02T18:20:21.126Z,100390.75
2018-02-02T18:22:51.285Z,100394.32
2018-02-02T18:25:21.270Z,100393.28
2018-02-02T18:27:51.407Z,100402.00
2018-02-02T18:30:21.481Z,100410.73
2018-02-02T18:32:51.458Z,100403.59
2018-02-02T18:35:21.568Z,100410.86
2018-02-02T18:37:51.648Z,100412.70
2018-02-02T18:40:21.639Z,100413.13
2018-02-02T18:42:51.791Z,100423.03
2018-02-02T18:45:21.744Z,100423.02
2018-02-02T18:47:51.772Z,100426.34
2018-02-02T18:50:21.761Z,100431.62
2018-02-02T18:52:52.613Z,100429.24
2018-02-02T18:55:22.675Z,100426.73
2018-02-02T18:57:52.869Z,100428.84
2018-02-02T19:00:22.947Z,100433.36
2018-02-02T19:02:52.955Z,100440.74
2018-02-02T19:05:23.460Z,100438.77
2018-02-02T19:07:53.319Z,100437.18
2018-02-02T19:10:23.340Z,100435.88
2018-02-02T19:12:55.313Z,100441.02
2018-02-02T19:15:25.304Z,100446.96
2018-02-02T19:17:55.400Z,100449.35
2018-02-02T19:20:25.528Z,100447.36
2018-02-02T19:22:55.597Z,100455.03
2018-02-02T19:25:25.850Z,100458.88
2018-02-02T19:27:55.781Z,100461.64
2018-02-02T19:30:26.083Z,100470.50
2018-02-02T19:32:56.074Z,100471.84
2018-02-02T19:35:25.981Z,100465.22
2018-02-02T19:37:56.107Z,100474.31
2018-02-02T19:40:26.250Z,100476.59
2018-02-02T19:42:57.120Z,100474.86
2018-02-02T19:45:27.354Z,100484.52
2018-02-02T19:47:57.575Z,100481.34
2018-02-02T19:50:27.745Z,100486.61
2018-02-02T19:52:58.663Z,100486.48
2018-02-02T19:55:28.617Z,100495.76
2018-02-02T19:57:58.533Z,100500.27
2018-02-02T20:00:28.617Z,100496.81
2018-02-02T20:02:58.846Z,100500.53
2018-02-02T20:05:29.600Z,100503.05
2018-02-02T20:08:00.482Z,100509.11
2018-02-02T20:10:31.154Z,100501.70
2018-02-02T20:13:02.447Z,100508.66
2018-02-02T20:15:32.945Z,100505.50
2018-02-02T20:18:04.054Z,100509.15
2018-02-02T20:20:34.376Z,100507.50
2018-02-02T20:23:04.760Z,100513.05
2018-02-02T20:25:35.342Z,100510.12
2018-02-02T20:28:06.612Z,100521.27
2018-02-02T20:30:38.081Z,100517.20
2018-02-02T20:33:09.103Z,100518.94
2018-02-02T20:35:39.641Z,100515.63
2018-02-02T20:38:10.573Z,100514.20
2018-02-02T20:40:40.791Z,100517.12
2018-02-02T20:43:11.066Z,100524.00
2018-02-02T20:45:41.194Z,100521.98
2018-02-02T20:48:11.191Z,100521.73
2018-02-02T20:50:41.911Z,100515.50
2018-02-02T20:53:12.168Z,100524.20
2018-02-02T20:55:42.108Z,100525.13
2018-02-02T20:58:12.111Z,100530.39
2018-02-02T21:00:42.362Z,100526.90
2018-02-02T21:03:12.580Z,100535.12
2018-02-02T21:05:42.673Z,100536.81
2018-02-02T21:08:12.605Z,100536.00
2018-02-02T21:10:42.532Z,100542.37
2018-02-02T21:13:12.371Z,100536.44
2018-02-02T21:15:42.418Z,100543.62
2018-02-02T21:18:13.298Z,100545.69
2018-02-02T21:20:43.338Z,100547.27
2018-02-02T21:23:13.397Z,100552.80
2018-02-02T21:25:43.417Z,100550.92
2018-02-02T21:28:13.465Z,100555.03
2018-02-02T21:30:43.360Z,100557.44
2018-02-02T21:33:14.091Z,100559.31
2018-02-02T21:35:45.111Z,100561.25
2018-02-02T21:38:15.039Z,100560.31
2018-02-02T21:40:44.989Z,100556.02
2018-02-02T21:43:15.017Z,100555.13
2018-02-02T21:45:45.039Z,100564.38
2018-02-02T21:48:14.981Z,100566.05
2018-02-02T21:50:44.917Z,100568.98
2018-02-02T21:53:14.813Z,100572.28
2018-02-02T21:55:44.755Z,100570.56
2018-02-02T21:58:15.467Z,100569.22
2018-02-02T22:00:45.958Z,100573.79
2018-02-02T22:03:15.914Z,100567.59
2018-02-02T22:05:46.163Z,100568.19
2018-02-02T22:08:16.528Z,100569.14
2018-02-02T22:10:46.849Z,100566.20
2018-02-02T22:13:16.979Z,100566.75
2018-02-02T22:15:47.333Z,100577.09
2018-02-02T22:18:17.191Z,100572.95
2018-02-02T22:20:47.305Z,100572.58
2018-02-02T22:23:18.169Z,100579.45
2018-02-02T22:25:48.253Z,100575.17
2018-02-02T22:28:18.509Z,100575.97
2018-02-02T22:30:49.190Z,100578.23
2018-02-02T22:33:20.058Z,100587.51
2018-02-02T22:35:50.416Z,100576.08
2018-02-02T22:38:20.359Z,100579.23
2018-02-02T22:40:51.298Z,100584.45
2018-02-02T22:43:23.092Z,100579.94
2018-02-02T22:45:54.150Z,100589.81
2018-02-02T22:48:24.343Z,100582.44
2018-02-02T22:50:54.582Z,100578.30
2018-02-02T22:53:24.685Z,100580.09
2018-02-02T22:55:54.633Z,100580.45
2018-02-02T22:58:25.514Z,100586.45
2018-02-02T23:00:55.391Z,100586.99
2018-02-02T23:03:26.128Z,100586.51
2018-02-02T23:05:56.068Z,100593.37
2018-02-02T23:08:26.032Z,100588.48
2018-02-02T23:10:55.962Z,100592.38
2018-02-02T23:13:26.802Z,100590.61
2018-02-02T23:15:57.575Z,100590.22
2018-02-02T23:18:27.886Z,100587.22
2018-02-02T23:20:57.983Z,100586.94
2018-02-02T23:23:28.716Z,100590.64
2018-02-02T23:25:58.765Z,100593.13
2018-02-02T23:28:28.951Z,100586.93
2018-02-02T23:30:59.005Z,100590.23
2018-02-02T23:33:29.121Z,100582.20
2018-02-02T23:35:59.087Z,100581.62
2018-02-02T23:38:29.390Z,100583.20
2018-02-02T23:40:59.180Z,100585.77
2018-02-02T23:43:29.204Z,100586.31
2018-02-02T23:45:59.156Z,100591.30
2018-02-02T23:48:29.472Z,100589.36
2018-02-02T23:50:59.406Z,100594.08
2018-02-02T23:53:29.417Z,100595.70
2018-02-02T23:55:59.254Z,100593.69
2018-02-02T23:58:29.504Z,100589.28
